Kaycee, WY (82639)

10:18 AM MDT on August 28, 2014 (GMT -0600)
APRSWXNET Kaycee WY US | Change Station
CLOSE
Current Station
Personal Weather Station
Location: Kaycee, WY
Elevation: 5403 ft
Nearby Weather Stations

Elev 5403 ft 43.86 °N, 106.83 °W | Updated 58 minutes ago

Clear
Clear
70 °F
Feels Like 70 °F
N
2
Wind Variable Wind from North
Gusts 5.0 mph

Today
High -- | Low -- °F
--% Chance of Precip.
Yesterday
High -- | Low -- °F
Precip. -- in
6:25 AM 7:49 PM
Waxing Crescent, 9% visible
Pressure 29.97 in
Visibility 10.0 miles
Clouds Clear
Dew Point 45 °F
Humidity 41%
Rainfall 0.28 in
Snow Depth Not available.
UV 4 out of 12
Pollen 7.80 out of 12
Air Quality Not available.
Flu Activity Not available.
METAR KBYG 281553Z AUTO 35008KT 10SM CLR 24/07 A3012 RMK AO2 SLP147 T02390072

More Conditions Fewer Conditions

Pressure 29.97 in
Visibility 10.0 miles
Clouds Clear
Dew Point 45 °F
Humidity 41%
Rainfall 0.28 in
Snow Depth Not available.
UV 4 out of 12
Pollen 7.80 out of 12
Air Quality Not available.
Flu Activity Not available.
METAR KBYG 281553Z AUTO 35008KT 10SM CLR 24/07 A3012 RMK AO2 SLP147 T02390072

More Conditions Fewer Conditions

10-Day Weather Forecast

Almanac

Astronomy

Aug. 28, 2014 Rise Set
Actual Time 6:25 AM MDT 7:49 PM MDT
Civil Twilight 5:55 AM MDT 8:19 PM MDT
Nautical Twilight 5:19 AM MDT 8:55 PM MDT
Astronomical Twilight 4:40 AM MDT 9:33 PM MDT
Moon 9:27 AM MDT 9:06 PM MDT
Length of Visible Light 14h 23m
Length of Day
13h 23m
Tomorrow will be 2m 52s shorter.
Waxing Crescent, 9% of the Moon is Illuminated
Today
Waxing Crescent
Sep 2
First Quarter
Sep 8
Full
Sep 15
Last Quarter
Sep 24
New

Today's Extremes

State Highs State Lows

Community

WunderPhotos

Upload Photos

1,748,004 photos uploaded!

Nearby

Snow Depth

Station Depth Elevation
Middle Powder 0 in 7760 ft
Powder River Pass 0 in 9480 ft
Big Goose 0 in 7990 ft
Dome Lake 0 in 8880 ft
Bone Springs Divide 0 in 9350 ft

Earthquake Activity

City Distance Mag. Time & Date
No recent earthquake activity has been reported nearby.
Minimum magnitude displayed is 2.5.

Coastal Water Temperatures

Place Temperature
No Stations Reporting

Nearby Weather Stations